Latest Weather Observations for Beaudesert AWS

IDQ60901

Issued at 3:55 pm EST Wednesday 1 October 2014 (issued every 10 minutes, with the page automatically refreshed every 10 minutes)

About weather observations | Map of Brisbane area stations | Latest observations for Brisbane area | Other Formats
Station Details ID: 040983 Name: BEAUDESERT DRUMLEY STREET Lat: -27.97 Lon: 152.99 Height: 47.81 m
Data from the previous 72 hours. | See also: Recent months at Beaudesert AWS
Date/Time
EST
Tmp

°C
App
Tmp
°C
Dew
Point
°C
Rel
Hum
%
Delta-T

°C
Wind Press
QNH
hPa
Press
MSL
hPa
Rain
since
9 am
mm
Dir
 
Spd
km/h
Gust
km/h
Spd
kts
Gust
kts
01/03:30pm 33.0 30.8 7.8 21 14.0 W 9 19 5 10 1010.9 1010.7 -
01/03:00pm 33.6 30.9 9.0 22 14.0 W 13 - 7 - - 1011.0 -
01/02:30pm 33.4 31.2 9.4 23 13.7 WNW 11 19 6 10 1011.3 1011.1 0.0
01/02:00pm 32.6 29.5 8.8 23 13.4 W 15 26 8 14 1011.6 1011.4 0.0
01/01:30pm 32.3 29.8 9.8 25 12.8 WSW 13 22 7 12 1012.2 1012.0 0.0
01/01:00pm 31.4 28.4 10.7 28 11.9 W 17 28 9 15 1012.7 1012.5 0.0
01/12:30pm 30.8 29.8 12.2 32 10.9 NW 9 17 5 9 1013.3 1013.2 0.0
01/12:00pm 29.6 28.2 12.1 34 10.2 W 11 20 6 11 1013.9 1013.8 0.0
01/11:30am 28.2 26.6 11.7 36 9.5 WNW 11 28 6 15 1014.6 1014.5 0.0
01/11:00am 27.4 26.1 12.6 40 8.6 NW 11 22 6 12 1015.2 1015.1 0.0
01/10:30am 26.1 26.6 14.9 50 6.7 NNW 6 11 3 6 1015.8 1015.7 0.0
01/10:00am 24.5 24.5 15.1 55 5.6 NNW 9 13 5 7 1016.2 1016.1 0.0
01/09:30am 23.4 23.8 14.7 58 5.2 NW 6 9 3 5 1016.6 1016.5 0.0
01/09:00am 22.3 23.5 15.9 67 3.9 W 4 7 2 4 1017.5 1017.4 0.0
01/08:30am 20.2 21.0 14.8 71 3.2 W 4 7 2 4 1017.7 1017.6 0.0
01/08:00am 18.6 20.3 15.3 81 1.9 CALM 0 0 0 0 1017.9 1017.8 0.0
01/07:30am 16.7 17.8 14.7 88 1.2 S 2 4 1 2 1018.0 1017.9 0.0
01/07:00am 14.5 14.8 13.4 93 0.6 SSW 4 4 2 2 1017.8 1017.7 0.0
01/06:30am 12.9 13.5 12.0 94 0.5 CALM 0 0 0 0 1017.4 1017.3 0.0
01/06:00am 10.8 10.8 9.7 93 0.6 CALM 0 2 0 1 1017.1 1017.0 0.0
01/05:30am 11.0 10.9 9.6 91 0.7 CALM 0 0 0 0 1016.9 1016.8 0.0
01/05:00am 11.7 11.9 10.4 92 0.7 CALM 0 0 0 0 1016.6 1016.5 0.0
01/04:30am 11.8 12.0 10.5 92 0.7 CALM 0 0 0 0 1016.4 1016.3 0.0
01/04:00am 11.8 12.0 10.4 91 0.7 CALM 0 0 0 0 1016.5 1016.4 0.0
01/03:30am 12.8 13.2 11.4 91 0.7 CALM 0 0 0 0 1016.1 1016.0 0.0
01/03:00am 13.2 13.8 11.8 91 0.7 CALM 0 0 0 0 1016.2 1016.1 0.0
01/02:30am 13.5 14.0 11.7 89 1.0 CALM 0 0 0 0 1016.2 1016.1 0.0
01/02:00am 14.5 15.0 12.9 90 0.9 ESE 2 2 1 1 1016.5 1016.4 0.0
01/01:30am 14.6 15.2 13.1 91 0.8 ESE 2 4 1 2 1016.9 1016.8 0.0
01/01:00am 14.0 14.6 12.0 88 1.1 CALM 0 0 0 0 1017.2 1017.1 0.0
01/12:30am 14.9 15.9 13.3 90 0.9 CALM 0 4 0 2 1017.6 1017.5 0.0
01/12:00am 13.9 14.1 11.9 88 1.1 S 2 4 1 2 1018.0 1017.9 0.0
 
Date/Time
EST
Tmp

°C
App
Tmp
°C
Dew
Point
°C
Rel
Hum
%
Delta-T

°C
Wind Press
QNH
hPa
Press
MSL
hPa
Rain
since
9 am
mm
Dir
 
Spd
km/h
Gust
km/h
Spd
kts
Gust
kts
30/11:30pm 14.8 15.6 12.7 87 1.2 CALM 0 0 0 0 1018.1 1018.0 0.0
30/11:00pm 14.9 15.6 12.2 84 1.5 CALM 0 0 0 0 1018.3 1018.2 0.0
30/10:30pm 15.3 16.0 12.1 81 1.7 CALM 0 0 0 0 1018.5 1018.4 0.0
30/10:00pm 16.5 17.0 12.8 79 2.1 ESE 2 2 1 1 1018.4 1018.3 0.0
30/09:30pm 17.4 18.6 13.7 79 2.1 CALM 0 0 0 0 1018.5 1018.4 0.0
30/09:00pm 17.7 18.9 13.8 78 2.2 CALM 0 0 0 0 1018.6 1018.5 0.0
30/08:30pm 18.8 19.7 14.1 74 2.7 E 2 4 1 2 1018.6 1018.5 0.0
30/08:00pm 19.4 19.8 13.6 69 3.3 ENE 4 7 2 4 1018.4 1018.3 0.0
30/07:30pm 20.4 20.7 13.4 64 4.0 NE 4 6 2 3 1018.0 1017.9 0.0
30/07:00pm 20.9 20.7 13.1 61 4.4 NE 6 9 3 5 1017.7 1017.6 0.0
30/06:30pm 21.9 21.5 13.0 57 5.1 NNE 7 15 4 8 1017.4 1017.3 0.0
30/06:00pm 22.7 21.7 12.3 52 5.9 NNE 9 17 5 9 1016.9 1016.8 0.0
30/05:30pm 23.8 22.0 12.1 48 6.7 N 13 20 7 11 1016.5 1016.4 0.0
30/05:00pm 25.2 22.9 11.7 43 7.7 N 15 26 8 14 1016.1 1016.0 0.0
30/04:30pm 26.3 24.2 11.2 38 8.6 N 13 24 7 13 1015.8 1015.7 0.0
30/04:00pm 27.3 24.7 12.1 39 8.8 N 17 26 9 14 1015.7 1015.6 0.0
30/03:30pm 28.2 25.5 11.7 36 9.5 N 17 26 9 14 1015.6 1015.5 0.0
30/03:00pm 29.4 28.3 10.0 30 10.9 N 6 11 3 6 1015.6 1015.5 0.0
30/02:30pm 29.6 28.4 10.2 30 11.0 NNW 7 15 4 8 1015.9 1015.8 0.0
30/02:00pm 29.4 29.0 11.0 32 10.5 WNW 4 9 2 5 1016.1 1016.0 0.0
30/01:30pm 28.6 27.5 10.8 33 10.1 NW 7 11 4 6 1016.6 1016.5 0.0
30/01:00pm 28.3 27.2 10.0 32 10.3 N 6 13 3 7 1017.1 1017.0 0.0
30/12:30pm 27.9 27.1 11.0 35 9.6 N 6 17 3 9 1017.7 1017.6 0.0
30/12:00pm 26.7 25.0 10.0 35 9.3 NW 9 15 5 8 1018.2 1018.1 0.0
30/11:30am 26.3 25.3 10.9 38 8.7 NW 7 15 4 8 1018.8 1018.7 0.0
30/11:00am 25.6 24.8 11.0 40 8.2 NNW 6 11 3 6 1019.3 1019.2 0.0
30/10:30am 23.9 22.9 10.9 44 7.3 NW 7 15 4 8 1019.9 1019.8 0.0
30/10:00am 22.9 22.2 11.9 50 6.2 NW 7 11 4 6 1020.5 1020.4 0.0
30/09:30am 21.8 20.9 11.5 52 5.7 NNW 7 13 4 7 1020.8 1020.7 0.0
30/09:00am 20.9 21.0 12.6 59 4.7 NNW 4 7 2 4 1021.1 1021.0 -
30/08:30am 19.9 21.3 14.3 70 3.3 CALM 0 2 0 1 1021.1 1021.0 -
30/08:00am 17.2 18.2 13.1 77 2.3 CALM 0 4 0 2 1021.2 1021.1 -
30/07:30am 15.1 15.6 12.8 86 1.3 SSW 2 4 1 2 1021.1 1021.0 -
30/07:00am 13.7 13.9 11.9 89 1.0 S 2 4 1 2 1021.1 1021.0 -
30/06:30am 12.3 12.6 10.9 91 0.7 CALM 0 0 0 0 1020.8 1020.7 -
30/06:00am 11.8 12.0 10.7 93 0.6 CALM 0 0 0 0 1020.5 1020.4 -
30/05:30am 11.1 11.1 9.7 91 0.7 CALM 0 4 0 2 1020.1 1020.0 -
30/05:00am 11.9 12.2 10.8 93 0.6 CALM 0 0 0 0 1019.8 1019.7 -
30/04:30am 11.4 11.5 10.3 93 0.6 CALM 0 0 0 0 1019.5 1019.4 -
30/04:00am 11.1 11.1 9.7 91 0.7 CALM 0 0 0 0 1019.2 1019.1 -
30/03:30am 11.6 11.6 9.9 89 0.9 CALM 0 0 0 0 1019.2 1019.1 -
30/03:00am 12.1 12.2 10.3 89 0.9 CALM 0 0 0 0 1019.1 1019.0 0.0
30/02:30am 12.7 13.0 10.9 89 0.9 CALM 0 0 0 0 1019.3 1019.2 -
30/02:00am 13.5 14.0 11.7 89 1.0 CALM 0 0 0 0 1019.3 1019.2 -
30/01:30am 13.6 13.8 12.0 90 0.9 SSE 2 4 1 2 1019.4 1019.3 -
30/01:00am 13.5 13.7 11.9 90 0.9 SSE 2 4 1 2 1019.6 1019.5 -
30/12:30am 13.2 13.8 11.8 91 0.7 CALM 0 0 0 0 1019.7 1019.6 -
30/12:00am 12.8 13.2 11.2 90 0.8 CALM 0 0 0 0 1020.0 1019.9 -
 
Date/Time
EST
Tmp

°C
App
Tmp
°C
Dew
Point
°C
Rel
Hum
%
Delta-T

°C
Wind Press
QNH
hPa
Press
MSL
hPa
Rain
since
9 am
mm
Dir
 
Spd
km/h
Gust
km/h
Spd
kts
Gust
kts
29/11:30pm 12.8 13.0 10.5 86 1.2 CALM 0 0 0 0 1020.0 1019.9 -
29/11:00pm 13.5 13.9 11.2 86 1.2 CALM 0 0 0 0 1020.0 1019.9 -
29/10:30pm 13.9 14.3 11.2 84 1.4 CALM 0 0 0 0 1020.1 1020.0 -
29/10:00pm 14.7 15.1 11.3 80 1.8 CALM 0 0 0 0 1020.0 1019.9 -
29/09:30pm 16.6 17.1 12.8 78 2.1 E 2 2 1 1 1020.0 1019.9 -
29/09:00pm 16.7 17.0 12.3 75 2.4 E 2 4 1 2 1019.9 1019.8 0.0
29/08:30pm 17.4 18.2 12.7 74 2.6 CALM 0 0 0 0 1019.7 1019.6 -
29/08:00pm 18.5 18.9 12.5 68 3.3 NNE 2 6 1 3 1019.4 1019.3 -
29/07:30pm 19.4 19.6 12.9 66 3.7 N 4 7 2 4 1019.1 1019.0 -
29/07:00pm 20.2 20.0 12.9 63 4.1 NNE 6 9 3 5 1018.9 1018.8 -
29/06:30pm 20.3 20.9 12.0 59 4.6 CALM 0 0 0 0 1018.6 1018.5 -
29/06:00pm 21.9 21.4 12.5 55 5.3 NNE 7 11 4 6 1018.0 1017.9 -
29/05:30pm 23.2 22.6 12.2 50 6.3 N 7 13 4 7 1017.4 1017.3 -
29/05:00pm 24.2 22.8 12.2 47 6.8 NNE 11 20 6 11 1016.9 1016.8 -
29/04:30pm 25.8 23.9 11.9 42 8.0 N 13 22 7 12 1016.5 1016.4 -
29/04:00pm 27.1 25.8 9.9 34 9.6 N 7 11 4 6 1016.3 1016.2 -
29/03:30pm 27.0 25.8 9.4 33 9.7 NE 6 11 3 6 1016.3 1016.2 -
29/03:00pm 26.5 25.1 8.9 33 9.6 SE 6 13 3 7 1016.3 1016.2 -
29/02:30pm 26.8 25.5 9.2 33 9.7 NW 6 13 3 7 1016.5 1016.4 -
29/02:00pm 26.7 26.0 10.0 35 9.3 NNW 4 13 2 7 1016.8 1016.7 -
29/01:30pm 26.0 25.0 11.0 39 8.5 WNW 7 15 4 8 1017.3 1017.2 -
29/01:00pm 25.2 24.4 11.7 43 7.7 WNW 7 17 4 9 1017.8 1017.7 -
29/11:30am 23.7 23.3 12.4 49 6.5 NW 6 13 3 7 1019.4 1019.3 0.0
29/11:00am 22.7 22.3 12.3 52 5.9 NNW 6 15 3 8 1019.9 1019.8 0.0
29/10:30am 21.8 20.7 11.8 53 5.6 NW 9 15 5 8 1020.4 1020.3 0.0
29/10:00am 21.4 19.8 11.7 54 5.4 NNW 11 17 6 9 1020.8 1020.7 0.0
29/09:30am 20.6 19.9 11.5 56 5.0 WNW 6 13 3 7 1021.3 1021.2 0.0
29/09:00am 19.6 19.0 11.6 60 4.4 WNW 6 9 3 5 1021.7 1021.6 0.0
29/08:30am 18.3 18.5 11.8 66 3.6 S 2 4 1 2 1021.8 1021.7 0.0
29/08:00am 16.8 17.7 12.9 78 2.2 CALM 0 2 0 1 1021.9 1021.8 0.0
29/07:30am 13.8 14.2 11.1 84 1.4 CALM 0 0 0 0 1021.9 1021.8 0.0
29/07:00am 12.0 12.1 10.1 88 1.0 CALM 0 0 0 0 1021.8 1021.7 0.0
29/06:30am 11.0 11.0 9.8 92 0.6 CALM 0 0 0 0 1021.5 1021.4 0.0
29/06:00am 9.9 9.3 8.8 93 0.5 SSE 2 4 1 2 1021.3 1021.2 0.0
29/05:30am 9.5 9.1 8.3 92 0.6 CALM 0 0 0 0 1021.0 1020.9 0.0
29/05:00am 9.6 9.3 8.5 93 0.5 CALM 0 0 0 0 1020.8 1020.7 0.0
29/04:30am 9.2 8.6 7.6 90 0.8 CALM 0 0 0 0 1020.4 1020.3 0.0
29/04:00am 10.3 10.1 9.1 92 0.6 CALM 0 0 0 0 1020.1 1020.0 0.0
29/03:30am 10.4 9.9 9.2 92 0.6 SE 2 4 1 2 1020.0 1019.9 0.0
29/03:00am 10.5 10.4 9.3 92 0.6 CALM 0 0 0 0 1020.0 1019.9 0.0
29/02:30am 10.4 10.2 9.2 92 0.6 CALM 0 0 0 0 1020.3 1020.2 0.0
29/02:00am 10.4 10.2 9.0 91 0.7 CALM 0 0 0 0 1020.5 1020.4 0.0
29/01:30am 11.0 10.6 9.9 93 0.6 S 2 4 1 2 1020.9 1020.8 0.0
29/01:00am 10.7 10.6 9.3 91 0.7 CALM 0 0 0 0 1021.2 1021.1 0.0
29/12:30am 10.7 10.5 9.1 90 0.8 CALM 0 0 0 0 1021.5 1021.4 0.0
29/12:00am 11.0 10.9 9.4 90 0.8 CALM 0 0 0 0 1021.8 1021.7 0.0
 
Date/Time
EST
Tmp

°C
App
Tmp
°C
Dew
Point
°C
Rel
Hum
%
Delta-T

°C
Wind Press
QNH
hPa
Press
MSL
hPa
Rain
since
9 am
mm
Dir
 
Spd
km/h
Gust
km/h
Spd
kts
Gust
kts
28/11:30pm 11.2 11.1 9.3 88 1.0 CALM 0 0 0 0 1021.8 1021.7 0.0
28/11:00pm 12.0 12.0 9.7 86 1.2 CALM 0 0 0 0 1021.8 1021.7 0.0
28/10:30pm 12.1 12.0 9.5 84 1.3 CALM 0 0 0 0 1021.6 1021.5 0.0
28/10:00pm 12.9 12.9 9.9 82 1.5 CALM 0 0 0 0 1021.5 1021.4 0.0
28/09:30pm 13.4 13.5 10.0 80 1.8 CALM 0 0 0 0 1021.5 1021.4 0.0
28/09:00pm 14.3 14.3 9.9 75 2.3 CALM 0 0 0 0 1021.5 1021.4 0.0
28/08:30pm 15.2 15.0 10.6 74 2.4 NNE 2 6 1 3 1021.4 1021.3 0.0
28/08:00pm 15.0 14.5 9.4 69 2.9 NNW 2 4 1 2 1021.2 1021.1 0.0
28/07:30pm 16.3 15.8 9.5 64 3.5 N 2 4 1 2 1020.8 1020.7 0.0
28/07:00pm 17.4 16.8 10.3 63 3.8 NE 4 7 2 4 1020.3 1020.2 0.0
28/06:30pm 18.2 17.2 10.3 60 4.2 NE 6 7 3 4 1020.0 1019.9 0.0
28/06:00pm 18.9 17.9 10.2 57 4.7 ENE 6 13 3 7 1019.9 1019.8 0.0
28/05:30pm 20.1 18.5 10.2 53 5.3 ENE 9 17 5 9 1019.6 1019.5 0.0
28/05:00pm 21.2 19.0 10.7 51 5.7 ENE 13 20 7 11 1019.2 1019.1 0.0
28/04:30pm 22.0 20.3 11.1 50 6.0 E 11 22 6 12 1019.0 1018.9 0.0
28/04:00pm 22.5 20.6 11.9 51 6.0 E 13 22 7 12 1018.8 1018.7 0.0

Latest Capital City Observations: Canberra | Sydney | Melbourne | Brisbane | Adelaide | Perth | Hobart | Darwin

Other Formats:

Comma delimited format used in spreadsheet applications
http://www.bom.gov.au/fwo/IDQ60901/IDQ60901.95575.axf

JavaScript Object Notation format (JSON) in row-major order
http://www.bom.gov.au/fwo/IDQ60901/IDQ60901.95575.json